createdAt,value
2018-06-15T00:02:33.429Z,7.00
2018-06-15T00:07:17.929Z,6.43
2018-06-15T00:12:02.321Z,6.70
2018-06-15T00:16:46.781Z,6.80
2018-06-15T00:21:31.114Z,6.77
2018-06-15T00:26:15.589Z,6.83
2018-06-15T00:30:59.944Z,7.70
2018-06-15T00:35:44.355Z,7.27
2018-06-15T00:40:29.173Z,7.50
2018-06-15T00:45:13.868Z,7.77
2018-06-15T00:49:58.503Z,7.10
2018-06-15T00:54:43.030Z,6.77
2018-06-15T00:59:27.378Z,7.17
2018-06-15T01:04:11.799Z,6.63
2018-06-15T01:08:56.163Z,7.00
2018-06-15T01:13:40.504Z,6.47
2018-06-15T01:18:25.027Z,6.30
2018-06-15T01:23:09.458Z,6.40
2018-06-15T01:27:53.921Z,5.97
2018-06-15T01:32:38.315Z,6.17
2018-06-15T01:37:22.668Z,6.03
2018-06-15T01:42:07.033Z,6.33
2018-06-15T01:46:51.544Z,6.67
2018-06-15T01:51:35.907Z,7.00
2018-06-15T01:56:20.362Z,6.50
2018-06-15T02:01:04.693Z,7.23
2018-06-15T02:05:49.100Z,7.13
2018-06-15T02:10:33.491Z,7.20
2018-06-15T02:15:17.947Z,7.73
2018-06-15T02:20:02.298Z,6.80
2018-06-15T02:24:46.661Z,7.47
2018-06-15T02:29:31.110Z,7.87
2018-06-15T02:34:15.471Z,8.13
2018-06-15T02:39:00.071Z,8.40
2018-06-15T02:43:44.477Z,7.37
2018-06-15T02:48:28.958Z,8.40
2018-06-15T02:53:13.322Z,8.37
2018-06-15T02:57:57.695Z,8.17
2018-06-15T03:02:42.101Z,9.47
2018-06-15T03:07:26.474Z,9.87
2018-06-15T03:12:10.972Z,9.73
2018-06-15T03:16:55.449Z,9.60
2018-06-15T03:21:39.947Z,9.27
2018-06-15T03:26:24.430Z,9.83
2018-06-15T03:31:08.863Z,10.40
2018-06-15T03:35:53.219Z,9.63
2018-06-15T03:40:37.704Z,9.73
2018-06-15T03:45:22.230Z,9.87
2018-06-15T03:50:06.686Z,9.63
2018-06-15T03:54:51.290Z,9.40
2018-06-15T03:59:35.715Z,10.30
2018-06-15T04:04:20.102Z,10.47
2018-06-15T04:09:06.607Z,11.07
2018-06-15T04:13:50.966Z,10.13
2018-06-15T04:18:35.330Z,11.40
2018-06-15T04:23:19.803Z,11.27
2018-06-15T04:28:04.170Z,10.27
2018-06-15T04:32:48.794Z,11.40
2018-06-15T04:37:33.165Z,12.17
2018-06-15T04:42:17.581Z,11.27
2018-06-15T04:47:02.097Z,11.13
2018-06-15T04:51:46.628Z,11.43
2018-06-15T04:56:32.012Z,11.80
2018-06-15T05:01:16.762Z,11.77
2018-06-15T05:06:01.207Z,12.60
2018-06-15T05:10:45.759Z,11.43
2018-06-15T05:15:30.183Z,11.77
2018-06-15T05:20:14.499Z,11.00
2018-06-15T05:24:58.972Z,12.40
2018-06-15T05:29:43.341Z,12.67
2018-06-15T05:34:27.837Z,12.03
2018-06-15T05:39:12.662Z,13.00
2018-06-15T05:43:57.090Z,12.33
2018-06-15T05:48:41.541Z,12.43
2018-06-15T05:53:26.117Z,12.33
2018-06-15T05:58:10.659Z,12.00
2018-06-15T06:02:55.148Z,12.57
2018-06-15T06:07:39.762Z,12.17
2018-06-15T06:12:24.272Z,11.23
2018-06-15T06:17:08.650Z,11.30
2018-06-15T06:21:53.215Z,11.13
2018-06-15T06:26:37.879Z,11.53
2018-06-15T06:31:22.326Z,10.80
2018-06-15T06:36:06.850Z,12.30
2018-06-15T06:40:51.236Z,11.57
2018-06-15T06:45:35.623Z,12.80
2018-06-15T06:50:20.091Z,11.83
2018-06-15T06:55:04.670Z,13.47
2018-06-15T06:59:49.094Z,11.83
2018-06-15T07:04:33.651Z,12.10
2018-06-15T07:09:18.077Z,11.27
2018-06-15T07:14:02.529Z,12.43
2018-06-15T07:18:46.851Z,10.37
2018-06-15T07:23:31.495Z,11.17
2018-06-15T07:28:15.887Z,9.87
2018-06-15T07:33:00.338Z,9.07
2018-06-15T07:37:44.719Z,9.37
2018-06-15T07:42:29.066Z,10.00
2018-06-15T07:47:13.466Z,10.03
2018-06-15T07:51:58.034Z,8.70
2018-06-15T07:56:42.397Z,10.33
2018-06-15T08:01:26.872Z,8.83
2018-06-15T08:06:11.322Z,8.53
2018-06-15T08:10:55.695Z,8.13
2018-06-15T08:15:40.064Z,7.50
2018-06-15T08:20:24.576Z,8.13
2018-06-15T08:25:09.071Z,8.00
2018-06-15T08:29:53.665Z,7.60
2018-06-15T08:34:37.999Z,7.97
2018-06-15T08:39:22.352Z,7.80
2018-06-15T08:44:06.424Z,6.50
2018-06-15T08:48:50.754Z,7.53
2018-06-15T08:53:35.424Z,7.10
2018-06-15T08:58:19.837Z,7.50
2018-06-15T09:03:04.978Z,8.37
2018-06-15T09:07:49.444Z,8.67
2018-06-15T09:12:33.890Z,8.20
2018-06-15T09:17:18.327Z,7.53
2018-06-15T09:22:02.947Z,7.50
2018-06-15T09:26:47.465Z,7.53
2018-06-15T09:31:31.870Z,6.70
2018-06-15T09:36:16.325Z,6.83
2018-06-15T09:41:00.743Z,6.73
2018-06-15T09:45:45.113Z,6.20
2018-06-15T09:50:29.554Z,5.83
2018-06-15T09:55:13.883Z,5.87
2018-06-15T09:59:58.258Z,5.37
2018-06-15T10:04:42.806Z,5.90
2018-06-15T10:09:27.322Z,6.03
2018-06-15T10:14:11.650Z,5.00
2018-06-15T10:18:56.157Z,4.20
2018-06-15T10:23:40.622Z,4.50
2018-06-15T10:28:25.165Z,3.75
2018-06-15T10:33:10.117Z,4.22
2018-06-15T10:37:54.628Z,4.40
2018-06-15T10:42:39.081Z,4.28
2018-06-15T10:47:23.518Z,4.03
2018-06-15T10:52:07.886Z,4.80
2018-06-15T10:56:52.848Z,4.28
2018-06-15T11:01:37.399Z,5.12
2018-06-15T11:06:21.927Z,5.17
2018-06-15T11:11:06.310Z,4.10
2018-06-15T11:15:50.618Z,4.03
2018-06-15T11:20:35.067Z,4.60
2018-06-15T11:25:19.488Z,4.25
2018-06-15T11:30:03.925Z,3.92
2018-06-15T11:34:48.222Z,3.90
2018-06-15T11:39:32.618Z,4.45
2018-06-15T11:44:17.202Z,3.92
2018-06-15T11:49:01.633Z,3.52
2018-06-15T11:53:46.122Z,4.20
2018-06-15T11:58:30.535Z,4.90
2018-06-15T12:03:15.062Z,6.00
2018-06-15T12:07:59.522Z,5.77
2018-06-15T12:12:43.985Z,4.90
2018-06-15T12:17:28.336Z,5.33
2018-06-15T12:22:12.754Z,4.20
2018-06-15T12:26:57.213Z,4.23
2018-06-15T12:31:41.608Z,3.93
2018-06-15T12:36:25.973Z,4.00
2018-06-15T12:41:10.508Z,3.73
2018-06-15T12:45:54.934Z,3.47
2018-06-15T12:50:39.226Z,3.22
2018-06-15T12:55:23.599Z,3.12
2018-06-15T13:00:08.100Z,3.80
2018-06-15T13:04:52.743Z,5.08
2018-06-15T13:09:37.125Z,4.62
2018-06-15T13:14:21.542Z,3.53
2018-06-15T13:19:05.996Z,3.53
2018-06-15T13:23:50.721Z,4.93
2018-06-15T13:28:35.543Z,4.40
2018-06-15T13:33:20.266Z,4.13
2018-06-15T13:38:04.809Z,4.60
2018-06-15T13:42:49.397Z,3.77
2018-06-15T13:47:33.846Z,3.95
2018-06-15T13:52:18.218Z,3.65
2018-06-15T13:57:02.556Z,3.75
2018-06-15T14:01:47.004Z,3.70
2018-06-15T14:06:31.295Z,3.72
2018-06-15T14:11:15.812Z,3.60
2018-06-15T14:16:00.324Z,3.83
2018-06-15T14:20:44.769Z,3.62
2018-06-15T14:25:29.322Z,3.80
2018-06-15T14:30:13.631Z,4.40
2018-06-15T14:34:58.100Z,4.35
2018-06-15T14:39:42.448Z,4.17
2018-06-15T14:44:26.931Z,4.28
2018-06-15T14:49:11.458Z,4.05
2018-06-15T14:53:55.879Z,4.15
2018-06-15T14:58:40.465Z,4.13
2018-06-15T15:03:25.969Z,4.30
2018-06-15T15:08:10.467Z,4.57
2018-06-15T15:12:54.851Z,4.43
2018-06-15T15:17:40.106Z,4.47
2018-06-15T15:22:24.539Z,4.70
2018-06-15T15:27:08.974Z,4.60
2018-06-15T15:31:53.427Z,4.60
2018-06-15T15:36:38.045Z,4.40
2018-06-15T15:41:22.446Z,4.30
2018-06-15T15:46:06.948Z,4.70
2018-06-15T15:50:51.355Z,4.33
2018-06-15T15:55:36.075Z,4.80
2018-06-15T16:00:20.566Z,4.40
2018-06-15T16:05:04.990Z,4.60
2018-06-15T16:09:49.377Z,4.53
2018-06-15T16:14:33.863Z,4.67
2018-06-15T16:19:18.347Z,4.57
2018-06-15T16:24:02.815Z,4.23
2018-06-15T16:28:47.513Z,4.20
2018-06-15T16:33:32.078Z,3.90
2018-06-15T16:38:16.608Z,4.00
2018-06-15T16:43:00.989Z,3.90
2018-06-15T16:47:45.514Z,3.93
2018-06-15T16:52:29.970Z,3.90
2018-06-15T16:57:14.512Z,6.03
2018-06-15T17:01:59.050Z,5.27
2018-06-15T17:06:43.645Z,5.70
2018-06-15T17:11:28.023Z,4.83
2018-06-15T17:16:12.522Z,5.70
2018-06-15T17:20:56.904Z,5.13
2018-06-15T17:25:41.688Z,6.13
2018-06-15T17:30:26.385Z,6.03
2018-06-15T17:35:10.808Z,5.17
2018-06-15T17:39:55.648Z,5.30
2018-06-15T17:44:40.146Z,5.10
2018-06-15T17:49:24.891Z,5.60
2018-06-15T17:54:09.544Z,5.67
2018-06-15T17:58:54.200Z,5.23
2018-06-15T18:03:38.807Z,5.17
2018-06-15T18:08:28.290Z,5.10
2018-06-15T18:13:12.775Z,4.83
2018-06-15T18:17:57.272Z,4.63
2018-06-15T18:22:41.751Z,5.30
2018-06-15T18:27:26.147Z,5.03
2018-06-15T18:32:10.578Z,5.43
2018-06-15T18:36:55.127Z,5.23
2018-06-15T18:41:39.792Z,5.97
2018-06-15T18:46:24.303Z,6.43
2018-06-15T18:51:08.709Z,5.77
2018-06-15T18:55:53.197Z,5.40
2018-06-15T19:00:37.636Z,5.67
2018-06-15T19:05:22.116Z,5.53
2018-06-15T19:10:06.729Z,6.40
2018-06-15T19:14:51.652Z,6.83
2018-06-15T19:19:36.436Z,6.67
2018-06-15T19:24:21.255Z,5.83
2018-06-15T19:29:06.359Z,5.53
2018-06-15T19:33:50.853Z,5.90
2018-06-15T19:38:35.595Z,6.43
2018-06-15T19:43:20.624Z,6.83
2018-06-15T19:48:05.911Z,6.40
2018-06-15T19:52:51.101Z,6.50
2018-06-15T19:57:36.457Z,6.57
2018-06-15T20:02:21.500Z,6.13
2018-06-15T20:07:06.533Z,6.70
2018-06-15T20:11:51.276Z,6.47
2018-06-15T20:16:36.368Z,6.63
2018-06-15T20:21:21.599Z,7.20
2018-06-15T20:26:06.888Z,6.93
2018-06-15T20:30:52.281Z,6.53
2018-06-15T20:35:37.310Z,6.33
2018-06-15T20:40:22.422Z,7.50
2018-06-15T20:45:07.593Z,6.30
2018-06-15T20:49:52.773Z,6.83
2018-06-15T20:54:37.786Z,6.70
2018-06-15T20:59:22.587Z,8.47
2018-06-15T21:04:07.674Z,7.23
2018-06-15T21:08:52.530Z,7.00
2018-06-15T21:13:37.138Z,7.50
2018-06-15T21:18:21.629Z,6.63
2018-06-15T21:23:06.165Z,7.80
2018-06-15T21:27:50.552Z,6.57
2018-06-15T21:32:35.119Z,7.23
2018-06-15T21:37:19.633Z,7.43
2018-06-15T21:42:04.181Z,7.23
2018-06-15T21:46:48.644Z,6.63
2018-06-15T21:51:33.003Z,7.33
2018-06-15T21:56:17.414Z,7.63
2018-06-15T22:01:01.778Z,7.30
2018-06-15T22:05:46.219Z,7.53
2018-06-15T22:10:30.640Z,8.23
2018-06-15T22:15:15.136Z,8.50
2018-06-15T22:19:59.495Z,8.60
2018-06-15T22:24:43.806Z,8.57
2018-06-15T22:29:28.864Z,8.80
2018-06-15T22:34:13.308Z,9.33
2018-06-15T22:38:57.795Z,8.90
2018-06-15T22:43:42.243Z,8.70
2018-06-15T22:48:26.658Z,9.07
2018-06-15T22:53:11.622Z,9.23
2018-06-15T22:57:56.009Z,9.53
2018-06-15T23:02:40.458Z,9.70
2018-06-15T23:07:25.219Z,9.10
2018-06-15T23:12:10.479Z,9.57
2018-06-15T23:16:54.985Z,9.70
2018-06-15T23:21:39.397Z,9.70
2018-06-15T23:26:23.878Z,9.53
2018-06-15T23:31:08.514Z,10.73
2018-06-15T23:35:53.311Z,9.43
2018-06-15T23:40:37.908Z,9.37
2018-06-15T23:45:22.422Z,9.77
2018-06-15T23:50:07.181Z,10.83
2018-06-15T23:54:51.566Z,10.57
2018-06-15T23:59:36.022Z,9.77
